sensor_id;sensor_type;location;lat;lon;timestamp;P1;durP1;ratioP1;P2;durP2;ratioP2
68944;SDS011;55984;48.790;8.990;2023-01-24T00:00:27;45.80;;;19.37;;
68944;SDS011;55984;48.790;8.990;2023-01-24T00:02:52;43.83;;;18.30;;
68944;SDS011;55984;48.790;8.990;2023-01-24T00:05:18;44.93;;;19.50;;
68944;SDS011;55984;48.790;8.990;2023-01-24T00:07:44;48.00;;;19.87;;
68944;SDS011;55984;48.790;8.990;2023-01-24T00:10:09;46.40;;;19.07;;
68944;SDS011;55984;48.790;8.990;2023-01-24T00:12:35;50.77;;;19.40;;
68944;SDS011;55984;48.790;8.990;2023-01-24T00:15:01;47.40;;;18.87;;
68944;SDS011;55984;48.790;8.990;2023-01-24T00:17:26;49.07;;;19.60;;
68944;SDS011;55984;48.790;8.990;2023-01-24T00:19:51;41.20;;;18.03;;
68944;SDS011;55984;48.790;8.990;2023-01-24T00:22:17;45.20;;;18.13;;
68944;SDS011;55984;48.790;8.990;2023-01-24T00:24:42;45.57;;;20.10;;
68944;SDS011;55984;48.790;8.990;2023-01-24T00:27:07;45.50;;;19.73;;
68944;SDS011;55984;48.790;8.990;2023-01-24T00:29:33;45.67;;;19.77;;
68944;SDS011;55984;48.790;8.990;2023-01-24T00:31:58;48.77;;;19.97;;
68944;SDS011;55984;48.790;8.990;2023-01-24T00:34:23;53.77;;;20.40;;
68944;SDS011;55984;48.790;8.990;2023-01-24T00:36:48;47.50;;;18.80;;
68944;SDS011;55984;48.790;8.990;2023-01-24T00:39:14;48.10;;;19.63;;
68944;SDS011;55984;48.790;8.990;2023-01-24T00:41:39;50.83;;;19.80;;
68944;SDS011;55984;48.790;8.990;2023-01-24T00:44:04;50.33;;;20.97;;
68944;SDS011;55984;48.790;8.990;2023-01-24T00:46:30;52.13;;;21.13;;
68944;SDS011;55984;48.790;8.990;2023-01-24T00:48:55;51.23;;;20.33;;
68944;SDS011;55984;48.790;8.990;2023-01-24T00:51:20;46.90;;;19.33;;
68944;SDS011;55984;48.790;8.990;2023-01-24T00:53:46;48.67;;;20.10;;
68944;SDS011;55984;48.790;8.990;2023-01-24T00:56:11;56.53;;;22.23;;
68944;SDS011;55984;48.790;8.990;2023-01-24T00:58:36;51.90;;;21.23;;
68944;SDS011;55984;48.790;8.990;2023-01-24T01:01:02;55.10;;;22.10;;
68944;SDS011;55984;48.790;8.990;2023-01-24T01:03:27;50.97;;;20.70;;
68944;SDS011;55984;48.790;8.990;2023-01-24T01:06:12;54.67;;;21.03;;
68944;SDS011;55984;48.790;8.990;2023-01-24T01:08:39;51.20;;;21.07;;
68944;SDS011;55984;48.790;8.990;2023-01-24T01:11:05;51.90;;;21.43;;
68944;SDS011;55984;48.790;8.990;2023-01-24T01:13:33;49.97;;;19.80;;
68944;SDS011;55984;48.790;8.990;2023-01-24T01:16:05;58.70;;;22.23;;
68944;SDS011;55984;48.790;8.990;2023-01-24T01:18:32;56.37;;;22.23;;
68944;SDS011;55984;48.790;8.990;2023-01-24T01:20:58;50.90;;;21.03;;
68944;SDS011;55984;48.790;8.990;2023-01-24T01:23:23;57.60;;;21.20;;
68944;SDS011;55984;48.790;8.990;2023-01-24T01:25:48;56.47;;;21.20;;
68944;SDS011;55984;48.790;8.990;2023-01-24T01:28:14;64.37;;;22.70;;
68944;SDS011;55984;48.790;8.990;2023-01-24T01:30:41;60.70;;;22.67;;
68944;SDS011;55984;48.790;8.990;2023-01-24T01:33:06;68.03;;;24.00;;
68944;SDS011;55984;48.790;8.990;2023-01-24T01:35:32;55.20;;;20.90;;
68944;SDS011;55984;48.790;8.990;2023-01-24T01:37:57;59.50;;;22.73;;
68944;SDS011;55984;48.790;8.990;2023-01-24T01:40:26;58.03;;;22.40;;
68944;SDS011;55984;48.790;8.990;2023-01-24T01:42:53;56.50;;;21.70;;
68944;SDS011;55984;48.790;8.990;2023-01-24T01:47:57;60.63;;;22.90;;
68944;SDS011;55984;48.790;8.990;2023-01-24T01:50:26;60.23;;;23.10;;
68944;SDS011;55984;48.790;8.990;2023-01-24T01:52:55;62.17;;;23.50;;
68944;SDS011;55984;48.790;8.990;2023-01-24T01:55:22;56.23;;;22.43;;
68944;SDS011;55984;48.790;8.990;2023-01-24T01:57:52;57.60;;;21.90;;
68944;SDS011;55984;48.790;8.990;2023-01-24T02:00:22;55.67;;;21.60;;
68944;SDS011;55984;48.790;8.990;2023-01-24T02:02:53;53.43;;;21.93;;
68944;SDS011;55984;48.790;8.990;2023-01-24T02:05:45;54.33;;;20.33;;
68944;SDS011;55984;48.790;8.990;2023-01-24T02:08:12;61.70;;;22.70;;
68944;SDS011;55984;48.790;8.990;2023-01-24T02:10:44;57.13;;;22.73;;
68944;SDS011;55984;48.790;8.990;2023-01-24T02:13:27;56.40;;;21.43;;
68944;SDS011;55984;48.790;8.990;2023-01-24T02:15:53;58.30;;;22.60;;
68944;SDS011;55984;48.790;8.990;2023-01-24T02:18:28;57.00;;;22.33;;
68944;SDS011;55984;48.790;8.990;2023-01-24T02:20:55;58.07;;;23.00;;
68944;SDS011;55984;48.790;8.990;2023-01-24T02:28:37;58.20;;;21.80;;
68944;SDS011;55984;48.790;8.990;2023-01-24T02:31:06;58.37;;;23.30;;
68944;SDS011;55984;48.790;8.990;2023-01-24T02:33:31;60.97;;;22.93;;
68944;SDS011;55984;48.790;8.990;2023-01-24T02:36:44;65.93;;;25.23;;
68944;SDS011;55984;48.790;8.990;2023-01-24T02:38:52;54.97;;;20.97;;
68944;SDS011;55984;48.790;8.990;2023-01-24T02:41:26;57.40;;;21.30;;
68944;SDS011;55984;48.790;8.990;2023-01-24T02:43:58;56.70;;;21.57;;
68944;SDS011;55984;48.790;8.990;2023-01-24T02:46:31;59.57;;;22.50;;
68944;SDS011;55984;48.790;8.990;2023-01-24T02:49:01;56.83;;;20.80;;
68944;SDS011;55984;48.790;8.990;2023-01-24T02:51:29;62.80;;;22.47;;
68944;SDS011;55984;48.790;8.990;2023-01-24T02:54:13;57.27;;;22.23;;
68944;SDS011;55984;48.790;8.990;2023-01-24T02:56:39;50.47;;;21.80;;
68944;SDS011;55984;48.790;8.990;2023-01-24T02:59:37;56.40;;;21.15;;
68944;SDS011;55984;48.790;8.990;2023-01-24T03:02:03;58.30;;;21.88;;
68944;SDS011;55984;48.790;8.990;2023-01-24T03:04:28;58.40;;;21.80;;
68944;SDS011;55984;48.790;8.990;2023-01-24T03:06:53;57.33;;;21.73;;
68944;SDS011;55984;48.790;8.990;2023-01-24T03:09:18;57.60;;;22.07;;
68944;SDS011;55984;48.790;8.990;2023-01-24T03:11:47;57.67;;;22.43;;
68944;SDS011;55984;48.790;8.990;2023-01-24T03:14:14;53.00;;;21.13;;
68944;SDS011;55984;48.790;8.990;2023-01-24T03:16:59;57.55;;;21.48;;
68944;SDS011;55984;48.790;8.990;2023-01-24T03:19:43;55.92;;;21.48;;
68944;SDS011;55984;48.790;8.990;2023-01-24T03:22:27;53.40;;;21.47;;
68944;SDS011;55984;48.790;8.990;2023-01-24T03:25:20;54.58;;;20.70;;
68944;SDS011;55984;48.790;8.990;2023-01-24T03:28:04;54.67;;;20.73;;
68944;SDS011;55984;48.790;8.990;2023-01-24T03:30:48;57.57;;;22.13;;
68944;SDS011;55984;48.790;8.990;2023-01-24T03:33:32;60.17;;;21.87;;
68944;SDS011;55984;48.790;8.990;2023-01-24T03:36:16;55.70;;;21.70;;
68944;SDS011;55984;48.790;8.990;2023-01-24T03:38:45;51.93;;;20.40;;
68944;SDS011;55984;48.790;8.990;2023-01-24T03:41:30;58.07;;;21.23;;
68944;SDS011;55984;48.790;8.990;2023-01-24T03:43:55;54.70;;;21.33;;
68944;SDS011;55984;48.790;8.990;2023-01-24T03:46:21;55.93;;;21.60;;
68944;SDS011;55984;48.790;8.990;2023-01-24T03:48:46;60.93;;;22.10;;
68944;SDS011;55984;48.790;8.990;2023-01-24T03:51:16;54.70;;;20.23;;
68944;SDS011;55984;48.790;8.990;2023-01-24T03:54:00;57.73;;;20.70;;
68944;SDS011;55984;48.790;8.990;2023-01-24T03:56:25;56.53;;;21.07;;
68944;SDS011;55984;48.790;8.990;2023-01-24T03:58:51;56.70;;;21.10;;
68944;SDS011;55984;48.790;8.990;2023-01-24T04:01:18;58.45;;;23.45;;
68944;SDS011;55984;48.790;8.990;2023-01-24T04:03:44;59.20;;;20.33;;
68944;SDS011;55984;48.790;8.990;2023-01-24T04:06:09;55.00;;;21.03;;
68944;SDS011;55984;48.790;8.990;2023-01-24T04:08:34;64.63;;;22.33;;
68944;SDS011;55984;48.790;8.990;2023-01-24T04:11:00;64.20;;;21.77;;
68944;SDS011;55984;48.790;8.990;2023-01-24T04:13:25;58.17;;;21.73;;
68944;SDS011;55984;48.790;8.990;2023-01-24T04:15:50;57.83;;;21.27;;
68944;SDS011;55984;48.790;8.990;2023-01-24T04:18:16;60.67;;;21.50;;
68944;SDS011;55984;48.790;8.990;2023-01-24T04:20:41;58.63;;;21.77;;
68944;SDS011;55984;48.790;8.990;2023-01-24T04:23:07;59.90;;;23.33;;
68944;SDS011;55984;48.790;8.990;2023-01-24T04:25:33;56.80;;;21.50;;
68944;SDS011;55984;48.790;8.990;2023-01-24T04:27:59;57.88;;;21.63;;
68944;SDS011;55984;48.790;8.990;2023-01-24T04:30:26;58.97;;;20.92;;
68944;SDS011;55984;48.790;8.990;2023-01-24T04:32:52;59.73;;;23.13;;
68944;SDS011;55984;48.790;8.990;2023-01-24T04:35:22;60.77;;;22.90;;
68944;SDS011;55984;48.790;8.990;2023-01-24T04:37:49;59.40;;;22.70;;
68944;SDS011;55984;48.790;8.990;2023-01-24T04:40:15;58.97;;;21.47;;
68944;SDS011;55984;48.790;8.990;2023-01-24T04:42:41;68.90;;;22.83;;
68944;SDS011;55984;48.790;8.990;2023-01-24T04:45:07;59.33;;;20.00;;
68944;SDS011;55984;48.790;8.990;2023-01-24T04:47:33;64.90;;;22.97;;
68944;SDS011;55984;48.790;8.990;2023-01-24T04:49:59;52.17;;;20.70;;
68944;SDS011;55984;48.790;8.990;2023-01-24T04:52:24;62.33;;;23.00;;
68944;SDS011;55984;48.790;8.990;2023-01-24T04:54:49;57.73;;;20.60;;
68944;SDS011;55984;48.790;8.990;2023-01-24T04:57:16;62.97;;;24.25;;
68944;SDS011;55984;48.790;8.990;2023-01-24T04:59:42;58.20;;;21.67;;
68944;SDS011;55984;48.790;8.990;2023-01-24T05:02:07;63.13;;;22.87;;
68944;SDS011;55984;48.790;8.990;2023-01-24T05:04:32;61.27;;;23.13;;
68944;SDS011;55984;48.790;8.990;2023-01-24T05:06:57;57.10;;;22.30;;
68944;SDS011;55984;48.790;8.990;2023-01-24T05:09:23;63.03;;;22.63;;
68944;SDS011;55984;48.790;8.990;2023-01-24T05:11:48;65.57;;;22.13;;
68944;SDS011;55984;48.790;8.990;2023-01-24T05:14:14;59.50;;;23.57;;
68944;SDS011;55984;48.790;8.990;2023-01-24T05:16:39;62.17;;;22.80;;
68944;SDS011;55984;48.790;8.990;2023-01-24T05:19:04;62.30;;;23.30;;
68944;SDS011;55984;48.790;8.990;2023-01-24T05:21:30;70.90;;;23.30;;
68944;SDS011;55984;48.790;8.990;2023-01-24T05:23:55;71.20;;;23.07;;
68944;SDS011;55984;48.790;8.990;2023-01-24T05:26:21;66.07;;;25.40;;
68944;SDS011;55984;48.790;8.990;2023-01-24T05:28:48;67.20;;;24.50;;
68944;SDS011;55984;48.790;8.990;2023-01-24T05:31:14;71.73;;;23.87;;
68944;SDS011;55984;48.790;8.990;2023-01-24T05:33:40;71.63;;;24.05;;
68944;SDS011;55984;48.790;8.990;2023-01-24T05:36:07;67.77;;;23.20;;
68944;SDS011;55984;48.790;8.990;2023-01-24T05:38:34;73.27;;;24.60;;
68944;SDS011;55984;48.790;8.990;2023-01-24T05:41:01;70.77;;;25.40;;
68944;SDS011;55984;48.790;8.990;2023-01-24T05:43:28;73.50;;;23.93;;
68944;SDS011;55984;48.790;8.990;2023-01-24T05:46:00;63.13;;;23.93;;
68944;SDS011;55984;48.790;8.990;2023-01-24T05:48:28;79.05;;;25.42;;
68944;SDS011;55984;48.790;8.990;2023-01-24T05:50:57;68.27;;;23.00;;
68944;SDS011;55984;48.790;8.990;2023-01-24T05:53:24;70.00;;;25.00;;
68944;SDS011;55984;48.790;8.990;2023-01-24T05:55:54;72.05;;;24.45;;
68944;SDS011;55984;48.790;8.990;2023-01-24T05:58:20;72.70;;;23.73;;
68944;SDS011;55984;48.790;8.990;2023-01-24T06:00:46;74.83;;;26.17;;
68944;SDS011;55984;48.790;8.990;2023-01-24T06:03:11;84.10;;;26.73;;
68944;SDS011;55984;48.790;8.990;2023-01-24T06:05:36;68.00;;;25.17;;
68944;SDS011;55984;48.790;8.990;2023-01-24T06:08:01;69.53;;;25.17;;
68944;SDS011;55984;48.790;8.990;2023-01-24T06:10:27;79.33;;;26.77;;
68944;SDS011;55984;48.790;8.990;2023-01-24T06:12:52;71.70;;;26.63;;
68944;SDS011;55984;48.790;8.990;2023-01-24T06:15:18;75.43;;;24.87;;
68944;SDS011;55984;48.790;8.990;2023-01-24T06:17:43;68.17;;;23.50;;
68944;SDS011;55984;48.790;8.990;2023-01-24T06:20:10;78.93;;;27.47;;
68944;SDS011;55984;48.790;8.990;2023-01-24T06:25:12;77.00;;;25.90;;
68944;SDS011;55984;48.790;8.990;2023-01-24T06:27:43;72.50;;;26.10;;
68944;SDS011;55984;48.790;8.990;2023-01-24T06:30:11;77.13;;;25.10;;
68944;SDS011;55984;48.790;8.990;2023-01-24T06:35:42;80.67;;;26.77;;
68944;SDS011;55984;48.790;8.990;2023-01-24T06:38:30;78.50;;;25.98;;
68944;SDS011;55984;48.790;8.990;2023-01-24T06:40:56;76.10;;;24.97;;
68944;SDS011;55984;48.790;8.990;2023-01-24T06:43:24;81.67;;;26.83;;
68944;SDS011;55984;48.790;8.990;2023-01-24T06:45:49;75.27;;;26.50;;
68944;SDS011;55984;48.790;8.990;2023-01-24T06:48:15;77.73;;;26.10;;
68944;SDS011;55984;48.790;8.990;2023-01-24T06:50:40;72.23;;;25.97;;
68944;SDS011;55984;48.790;8.990;2023-01-24T06:53:05;83.83;;;27.97;;
68944;SDS011;55984;48.790;8.990;2023-01-24T06:55:47;72.10;;;25.80;;
68944;SDS011;55984;48.790;8.990;2023-01-24T06:58:12;72.40;;;26.10;;
68944;SDS011;55984;48.790;8.990;2023-01-24T07:00:38;86.40;;;28.77;;
68944;SDS011;55984;48.790;8.990;2023-01-24T07:03:04;70.17;;;25.40;;
68944;SDS011;55984;48.790;8.990;2023-01-24T07:05:31;73.40;;;25.90;;
68944;SDS011;55984;48.790;8.990;2023-01-24T07:07:57;78.00;;;25.57;;
68944;SDS011;55984;48.790;8.990;2023-01-24T07:10:22;70.77;;;26.23;;
68944;SDS011;55984;48.790;8.990;2023-01-24T07:12:48;78.47;;;25.57;;
68944;SDS011;55984;48.790;8.990;2023-01-24T07:15:13;66.47;;;23.80;;
68944;SDS011;55984;48.790;8.990;2023-01-24T07:17:39;72.50;;;25.80;;
68944;SDS011;55984;48.790;8.990;2023-01-24T07:20:05;72.07;;;23.87;;
68944;SDS011;55984;48.790;8.990;2023-01-24T07:22:31;74.83;;;24.33;;
68944;SDS011;55984;48.790;8.990;2023-01-24T07:24:57;72.67;;;26.10;;
68944;SDS011;55984;48.790;8.990;2023-01-24T07:27:25;69.10;;;24.90;;
68944;SDS011;55984;48.790;8.990;2023-01-24T07:29:51;79.20;;;25.33;;
68944;SDS011;55984;48.790;8.990;2023-01-24T07:32:16;70.37;;;24.47;;
68944;SDS011;55984;48.790;8.990;2023-01-24T07:34:42;62.87;;;22.77;;
68944;SDS011;55984;48.790;8.990;2023-01-24T07:37:07;71.00;;;24.43;;
68944;SDS011;55984;48.790;8.990;2023-01-24T07:39:33;65.47;;;24.20;;
68944;SDS011;55984;48.790;8.990;2023-01-24T07:41:59;69.40;;;23.60;;
68944;SDS011;55984;48.790;8.990;2023-01-24T07:44:25;69.37;;;23.50;;
68944;SDS011;55984;48.790;8.990;2023-01-24T07:46:50;65.30;;;23.00;;
68944;SDS011;55984;48.790;8.990;2023-01-24T07:49:16;65.63;;;23.53;;
68944;SDS011;55984;48.790;8.990;2023-01-24T07:51:42;61.33;;;22.20;;
68944;SDS011;55984;48.790;8.990;2023-01-24T07:54:08;65.40;;;22.00;;
68944;SDS011;55984;48.790;8.990;2023-01-24T07:56:33;62.70;;;21.57;;
68944;SDS011;55984;48.790;8.990;2023-01-24T07:58:58;67.27;;;22.10;;
68944;SDS011;55984;48.790;8.990;2023-01-24T08:01:24;60.57;;;22.47;;
68944;SDS011;55984;48.790;8.990;2023-01-24T08:04:00;61.60;;;22.23;;
68944;SDS011;55984;48.790;8.990;2023-01-24T08:06:25;68.40;;;23.10;;
68944;SDS011;55984;48.790;8.990;2023-01-24T08:08:51;126.47;;;25.03;;
68944;SDS011;55984;48.790;8.990;2023-01-24T08:11:16;73.87;;;22.50;;
68944;SDS011;55984;48.790;8.990;2023-01-24T08:13:45;57.30;;;21.60;;
68944;SDS011;55984;48.790;8.990;2023-01-24T08:16:11;56.03;;;20.20;;
68944;SDS011;55984;48.790;8.990;2023-01-24T08:18:38;73.90;;;21.57;;
68944;SDS011;55984;48.790;8.990;2023-01-24T08:21:04;61.67;;;22.10;;
68944;SDS011;55984;48.790;8.990;2023-01-24T08:23:29;57.13;;;20.20;;
68944;SDS011;55984;48.790;8.990;2023-01-24T08:25:58;59.90;;;23.50;;
68944;SDS011;55984;48.790;8.990;2023-01-24T08:28:25;63.83;;;21.73;;
68944;SDS011;55984;48.790;8.990;2023-01-24T08:30:50;66.03;;;22.70;;
68944;SDS011;55984;48.790;8.990;2023-01-24T08:33:15;65.00;;;21.33;;
68944;SDS011;55984;48.790;8.990;2023-01-24T08:35:42;59.17;;;20.87;;
68944;SDS011;55984;48.790;8.990;2023-01-24T08:38:11;64.87;;;21.67;;
68944;SDS011;55984;48.790;8.990;2023-01-24T08:40:37;78.37;;;22.17;;
68944;SDS011;55984;48.790;8.990;2023-01-24T08:43:02;60.80;;;20.90;;
68944;SDS011;55984;48.790;8.990;2023-01-24T08:45:30;58.47;;;21.13;;
68944;SDS011;55984;48.790;8.990;2023-01-24T08:47:55;64.07;;;21.63;;
68944;SDS011;55984;48.790;8.990;2023-01-24T08:50:26;59.40;;;20.73;;
68944;SDS011;55984;48.790;8.990;2023-01-24T08:52:55;54.23;;;20.30;;
68944;SDS011;55984;48.790;8.990;2023-01-24T08:55:22;55.23;;;22.17;;
68944;SDS011;55984;48.790;8.990;2023-01-24T08:57:48;58.00;;;20.73;;
68944;SDS011;55984;48.790;8.990;2023-01-24T09:00:14;57.60;;;20.03;;
68944;SDS011;55984;48.790;8.990;2023-01-24T09:02:40;55.97;;;22.10;;
68944;SDS011;55984;48.790;8.990;2023-01-24T09:05:06;57.30;;;19.83;;
68944;SDS011;55984;48.790;8.990;2023-01-24T09:07:33;60.73;;;20.43;;
68944;SDS011;55984;48.790;8.990;2023-01-24T09:10:02;54.33;;;19.90;;
68944;SDS011;55984;48.790;8.990;2023-01-24T09:12:29;50.07;;;19.47;;
68944;SDS011;55984;48.790;8.990;2023-01-24T09:14:56;60.60;;;20.40;;
68944;SDS011;55984;48.790;8.990;2023-01-24T09:17:21;56.03;;;21.23;;
68944;SDS011;55984;48.790;8.990;2023-01-24T09:19:47;55.97;;;20.47;;
68944;SDS011;55984;48.790;8.990;2023-01-24T09:22:12;58.17;;;19.10;;
68944;SDS011;55984;48.790;8.990;2023-01-24T09:24:37;54.90;;;21.43;;
68944;SDS011;55984;48.790;8.990;2023-01-24T09:27:03;63.47;;;20.73;;
68944;SDS011;55984;48.790;8.990;2023-01-24T09:29:28;57.73;;;20.80;;
68944;SDS011;55984;48.790;8.990;2023-01-24T09:32:02;52.53;;;19.70;;
68944;SDS011;55984;48.790;8.990;2023-01-24T09:34:27;53.33;;;21.30;;
68944;SDS011;55984;48.790;8.990;2023-01-24T09:36:52;53.93;;;20.27;;
68944;SDS011;55984;48.790;8.990;2023-01-24T09:39:18;55.97;;;19.77;;
68944;SDS011;55984;48.790;8.990;2023-01-24T09:41:44;57.13;;;21.80;;
68944;SDS011;55984;48.790;8.990;2023-01-24T09:44:26;59.53;;;20.57;;
68944;SDS011;55984;48.790;8.990;2023-01-24T09:46:59;53.20;;;19.90;;
68944;SDS011;55984;48.790;8.990;2023-01-24T09:49:40;50.47;;;20.00;;
68944;SDS011;55984;48.790;8.990;2023-01-24T09:52:18;52.07;;;19.53;;
68944;SDS011;55984;48.790;8.990;2023-01-24T09:55:05;56.03;;;20.73;;
68944;SDS011;55984;48.790;8.990;2023-01-24T09:57:52;48.27;;;20.33;;
68944;SDS011;55984;48.790;8.990;2023-01-24T10:00:26;44.93;;;17.90;;
68944;SDS011;55984;48.790;8.990;2023-01-24T10:02:52;47.30;;;19.23;;
68944;SDS011;55984;48.790;8.990;2023-01-24T10:05:20;52.90;;;19.50;;
68944;SDS011;55984;48.790;8.990;2023-01-24T10:08:05;64.40;;;19.90;;
68944;SDS011;55984;48.790;8.990;2023-01-24T10:10:48;53.83;;;20.40;;
68944;SDS011;55984;48.790;8.990;2023-01-24T10:18:35;47.93;;;19.60;;
68944;SDS011;55984;48.790;8.990;2023-01-24T10:23:55;45.27;;;18.17;;
68944;SDS011;55984;48.790;8.990;2023-01-24T10:26:29;46.00;;;19.03;;
68944;SDS011;55984;48.790;8.990;2023-01-24T10:29:54;44.33;;;18.23;;
68944;SDS011;55984;48.790;8.990;2023-01-24T10:31:59;45.23;;;18.10;;
68944;SDS011;55984;48.790;8.990;2023-01-24T10:34:42;45.57;;;17.97;;
68944;SDS011;55984;48.790;8.990;2023-01-24T10:39:42;53.07;;;17.73;;
68944;SDS011;55984;48.790;8.990;2023-01-24T10:42:50;46.03;;;17.37;;
68944;SDS011;55984;48.790;8.990;2023-01-24T10:45:01;45.37;;;17.13;;
68944;SDS011;55984;48.790;8.990;2023-01-24T10:50:41;78.00;;;20.70;;
68944;SDS011;55984;48.790;8.990;2023-01-24T10:53:12;50.23;;;17.80;;
68944;SDS011;55984;48.790;8.990;2023-01-24T10:55:45;50.40;;;18.10;;
68944;SDS011;55984;48.790;8.990;2023-01-24T11:00:55;42.80;;;16.90;;
68944;SDS011;55984;48.790;8.990;2023-01-24T11:03:29;36.80;;;15.70;;
68944;SDS011;55984;48.790;8.990;2023-01-24T11:05:59;42.23;;;15.90;;
68944;SDS011;55984;48.790;8.990;2023-01-24T11:08:26;37.23;;;15.00;;
68944;SDS011;55984;48.790;8.990;2023-01-24T11:10:58;36.57;;;15.40;;
68944;SDS011;55984;48.790;8.990;2023-01-24T11:13:34;41.03;;;16.60;;
68944;SDS011;55984;48.790;8.990;2023-01-24T11:18:52;42.07;;;14.90;;
68944;SDS011;55984;48.790;8.990;2023-01-24T11:21:22;36.73;;;15.93;;
68944;SDS011;55984;48.790;8.990;2023-01-24T11:24:01;33.90;;;14.33;;
68944;SDS011;55984;48.790;8.990;2023-01-24T11:26:57;34.57;;;14.70;;
68944;SDS011;55984;48.790;8.990;2023-01-24T11:29:36;37.23;;;15.17;;
68944;SDS011;55984;48.790;8.990;2023-01-24T11:32:05;37.70;;;14.87;;
68944;SDS011;55984;48.790;8.990;2023-01-24T11:35:03;34.17;;;15.03;;
68944;SDS011;55984;48.790;8.990;2023-01-24T11:54:32;34.67;;;13.50;;
68944;SDS011;55984;48.790;8.990;2023-01-24T12:06:05;31.13;;;13.03;;
68944;SDS011;55984;48.790;8.990;2023-01-24T12:20:10;29.97;;;13.00;;
68944;SDS011;55984;48.790;8.990;2023-01-24T12:22:57;34.13;;;13.53;;
68944;SDS011;55984;48.790;8.990;2023-01-24T12:25:32;28.60;;;12.63;;
68944;SDS011;55984;48.790;8.990;2023-01-24T12:28:05;28.67;;;12.03;;
68944;SDS011;55984;48.790;8.990;2023-01-24T12:33:31;29.83;;;12.63;;
68944;SDS011;55984;48.790;8.990;2023-01-24T12:36:45;29.60;;;13.07;;
68944;SDS011;55984;48.790;8.990;2023-01-24T12:39:20;28.03;;;13.33;;
68944;SDS011;55984;48.790;8.990;2023-01-24T12:42:08;34.57;;;13.77;;
68944;SDS011;55984;48.790;8.990;2023-01-24T12:44:45;28.73;;;13.10;;
68944;SDS011;55984;48.790;8.990;2023-01-24T12:52:52;32.70;;;13.53;;
68944;SDS011;55984;48.790;8.990;2023-01-24T12:55:30;32.07;;;14.90;;
68944;SDS011;55984;48.790;8.990;2023-01-24T12:58:10;37.50;;;14.20;;
68944;SDS011;55984;48.790;8.990;2023-01-24T13:08:50;32.93;;;13.90;;
68944;SDS011;55984;48.790;8.990;2023-01-24T13:11:44;30.03;;;12.93;;
68944;SDS011;55984;48.790;8.990;2023-01-24T13:17:27;35.53;;;15.30;;
68944;SDS011;55984;48.790;8.990;2023-01-24T13:28:31;31.03;;;14.00;;
68944;SDS011;55984;48.790;8.990;2023-01-24T13:33:56;31.03;;;13.67;;
68944;SDS011;55984;48.790;8.990;2023-01-24T13:36:39;31.70;;;14.00;;
68944;SDS011;55984;48.790;8.990;2023-01-24T13:39:05;33.47;;;14.10;;
68944;SDS011;55984;48.790;8.990;2023-01-24T13:41:38;36.23;;;14.57;;
68944;SDS011;55984;48.790;8.990;2023-01-24T13:49:19;29.97;;;13.33;;
68944;SDS011;55984;48.790;8.990;2023-01-24T13:57:48;32.23;;;13.77;;
68944;SDS011;55984;48.790;8.990;2023-01-24T14:00:33;30.83;;;14.17;;
68944;SDS011;55984;48.790;8.990;2023-01-24T14:03:14;34.53;;;13.67;;
68944;SDS011;55984;48.790;8.990;2023-01-24T14:10:50;34.20;;;14.77;;
68944;SDS011;55984;48.790;8.990;2023-01-24T14:21:59;31.07;;;14.13;;
68944;SDS011;55984;48.790;8.990;2023-01-24T14:30:02;29.30;;;13.00;;
68944;SDS011;55984;48.790;8.990;2023-01-24T14:35:28;31.70;;;14.03;;
68944;SDS011;55984;48.790;8.990;2023-01-24T14:38:09;31.37;;;13.10;;
68944;SDS011;55984;48.790;8.990;2023-01-24T14:40:38;29.10;;;13.30;;
68944;SDS011;55984;48.790;8.990;2023-01-24T14:43:04;31.40;;;13.77;;
68944;SDS011;55984;48.790;8.990;2023-01-24T14:45:31;32.07;;;13.97;;
68944;SDS011;55984;48.790;8.990;2023-01-24T14:47:57;30.43;;;14.27;;
68944;SDS011;55984;48.790;8.990;2023-01-24T14:50:29;31.97;;;13.60;;
68944;SDS011;55984;48.790;8.990;2023-01-24T14:52:59;40.10;;;17.33;;
68944;SDS011;55984;48.790;8.990;2023-01-24T14:57:54;35.33;;;14.63;;
68944;SDS011;55984;48.790;8.990;2023-01-24T15:00:27;33.90;;;14.63;;
68944;SDS011;55984;48.790;8.990;2023-01-24T15:02:56;32.80;;;15.00;;
68944;SDS011;55984;48.790;8.990;2023-01-24T15:08:23;36.40;;;15.90;;
68944;SDS011;55984;48.790;8.990;2023-01-24T15:10:54;40.23;;;16.83;;
68944;SDS011;55984;48.790;8.990;2023-01-24T15:13:27;42.73;;;17.30;;
68944;SDS011;55984;48.790;8.990;2023-01-24T15:16:00;42.50;;;17.07;;
68944;SDS011;55984;48.790;8.990;2023-01-24T15:20:56;42.27;;;17.03;;
68944;SDS011;55984;48.790;8.990;2023-01-24T15:23:22;38.77;;;15.67;;
68944;SDS011;55984;48.790;8.990;2023-01-24T15:25:50;37.77;;;16.20;;
68944;SDS011;55984;48.790;8.990;2023-01-24T15:28:19;41.80;;;18.13;;
68944;SDS011;55984;48.790;8.990;2023-01-24T15:30:52;45.70;;;17.97;;
68944;SDS011;55984;48.790;8.990;2023-01-24T15:33:19;42.30;;;17.90;;
68944;SDS011;55984;48.790;8.990;2023-01-24T15:35:45;44.23;;;18.03;;
68944;SDS011;55984;48.790;8.990;2023-01-24T15:40:59;48.30;;;18.23;;
68944;SDS011;55984;48.790;8.990;2023-01-24T15:43:38;45.03;;;18.70;;
68944;SDS011;55984;48.790;8.990;2023-01-24T15:49:15;45.67;;;18.00;;
68944;SDS011;55984;48.790;8.990;2023-01-24T15:54:34;51.50;;;18.37;;
68944;SDS011;55984;48.790;8.990;2023-01-24T15:57:02;47.53;;;19.07;;
68944;SDS011;55984;48.790;8.990;2023-01-24T15:59:40;49.80;;;19.47;;
68944;SDS011;55984;48.790;8.990;2023-01-24T16:02:12;50.70;;;19.47;;
68944;SDS011;55984;48.790;8.990;2023-01-24T16:04:39;54.03;;;20.10;;
68944;SDS011;55984;48.790;8.990;2023-01-24T16:07:06;56.00;;;20.73;;
68944;SDS011;55984;48.790;8.990;2023-01-24T16:09:32;52.73;;;19.23;;
68944;SDS011;55984;48.790;8.990;2023-01-24T16:11:58;50.67;;;18.10;;
68944;SDS011;55984;48.790;8.990;2023-01-24T16:14:24;55.90;;;21.30;;
68944;SDS011;55984;48.790;8.990;2023-01-24T16:16:51;55.10;;;22.13;;
68944;SDS011;55984;48.790;8.990;2023-01-24T16:19:22;52.57;;;20.53;;
68944;SDS011;55984;48.790;8.990;2023-01-24T16:21:49;51.40;;;21.43;;
68944;SDS011;55984;48.790;8.990;2023-01-24T16:24:15;54.60;;;20.63;;
68944;SDS011;55984;48.790;8.990;2023-01-24T16:26:43;57.67;;;20.23;;
68944;SDS011;55984;48.790;8.990;2023-01-24T16:29:13;57.30;;;23.20;;
68944;SDS011;55984;48.790;8.990;2023-01-24T16:31:40;57.70;;;21.27;;
68944;SDS011;55984;48.790;8.990;2023-01-24T16:34:06;54.10;;;20.60;;
68944;SDS011;55984;48.790;8.990;2023-01-24T16:36:33;51.70;;;19.47;;
68944;SDS011;55984;48.790;8.990;2023-01-24T16:38:59;61.43;;;21.93;;
68944;SDS011;55984;48.790;8.990;2023-01-24T16:41:24;59.77;;;21.30;;
68944;SDS011;55984;48.790;8.990;2023-01-24T16:43:53;58.93;;;20.30;;
68944;SDS011;55984;48.790;8.990;2023-01-24T16:46:19;56.30;;;20.17;;
68944;SDS011;55984;48.790;8.990;2023-01-24T16:48:45;63.83;;;24.70;;
68944;SDS011;55984;48.790;8.990;2023-01-24T16:51:12;77.27;;;25.20;;
68944;SDS011;55984;48.790;8.990;2023-01-24T16:53:39;104.67;;;30.37;;
68944;SDS011;55984;48.790;8.990;2023-01-24T16:56:05;83.63;;;26.37;;
68944;SDS011;55984;48.790;8.990;2023-01-24T16:58:30;65.73;;;22.40;;
68944;SDS011;55984;48.790;8.990;2023-01-24T17:00:56;58.83;;;19.97;;
68944;SDS011;55984;48.790;8.990;2023-01-24T17:03:21;58.03;;;22.90;;
68944;SDS011;55984;48.790;8.990;2023-01-24T17:05:55;60.00;;;20.90;;